sensor_id;sensor_type;location;lat;lon;timestamp;temperature;humidity
6054;DHT22;3055;50.886;14.814;2023-06-14T00:01:04;10.80;99.90
6054;DHT22;3055;50.886;14.814;2023-06-14T00:03:32;10.80;99.90
6054;DHT22;3055;50.886;14.814;2023-06-14T00:05:59;10.80;99.90
6054;DHT22;3055;50.886;14.814;2023-06-14T00:08:26;10.80;99.90
6054;DHT22;3055;50.886;14.814;2023-06-14T00:10:54;10.80;99.90
6054;DHT22;3055;50.886;14.814;2023-06-14T00:13:22;10.80;99.90
6054;DHT22;3055;50.886;14.814;2023-06-14T00:15:49;10.70;99.90
6054;DHT22;3055;50.886;14.814;2023-06-14T00:18:19;10.60;99.90
6054;DHT22;3055;50.886;14.814;2023-06-14T00:20:49;10.60;99.90
6054;DHT22;3055;50.886;14.814;2023-06-14T00:23:17;10.50;99.90
6054;DHT22;3055;50.886;14.814;2023-06-14T00:25:44;10.40;99.90
6054;DHT22;3055;50.886;14.814;2023-06-14T00:28:12;10.30;99.90
6054;DHT22;3055;50.886;14.814;2023-06-14T00:30:40;10.30;99.90
6054;DHT22;3055;50.886;14.814;2023-06-14T00:33:07;10.30;99.90
6054;DHT22;3055;50.886;14.814;2023-06-14T00:35:34;10.30;99.90
6054;DHT22;3055;50.886;14.814;2023-06-14T00:38:01;10.30;99.90
6054;DHT22;3055;50.886;14.814;2023-06-14T00:40:28;10.20;99.90
6054;DHT22;3055;50.886;14.814;2023-06-14T00:42:55;10.20;99.90
6054;DHT22;3055;50.886;14.814;2023-06-14T00:45:24;10.20;99.90
6054;DHT22;3055;50.886;14.814;2023-06-14T00:47:51;10.10;99.90
6054;DHT22;3055;50.886;14.814;2023-06-14T00:50:21;10.10;99.90
6054;DHT22;3055;50.886;14.814;2023-06-14T00:52:49;10.10;99.90
6054;DHT22;3055;50.886;14.814;2023-06-14T00:55:16;10.10;99.90
6054;DHT22;3055;50.886;14.814;2023-06-14T00:57:43;10.10;99.90
6054;DHT22;3055;50.886;14.814;2023-06-14T01:00:12;10.10;99.90
6054;DHT22;3055;50.886;14.814;2023-06-14T01:02:41;10.00;99.90
6054;DHT22;3055;50.886;14.814;2023-06-14T01:05:09;10.10;99.90
6054;DHT22;3055;50.886;14.814;2023-06-14T01:07:52;10.00;99.90
6054;DHT22;3055;50.886;14.814;2023-06-14T01:10:32;10.00;99.90
6054;DHT22;3055;50.886;14.814;2023-06-14T01:13:07;10.10;99.90
6054;DHT22;3055;50.886;14.814;2023-06-14T01:15:36;9.90;99.90
6054;DHT22;3055;50.886;14.814;2023-06-14T01:18:05;9.80;99.90
6054;DHT22;3055;50.886;14.814;2023-06-14T01:20:33;9.70;99.90
6054;DHT22;3055;50.886;14.814;2023-06-14T01:23:04;9.70;99.90
6054;DHT22;3055;50.886;14.814;2023-06-14T01:25:31;9.70;99.90
6054;DHT22;3055;50.886;14.814;2023-06-14T01:28:00;9.70;99.90
6054;DHT22;3055;50.886;14.814;2023-06-14T01:30:29;9.70;99.90
6054;DHT22;3055;50.886;14.814;2023-06-14T01:32:59;9.70;99.90
6054;DHT22;3055;50.886;14.814;2023-06-14T01:35:26;9.70;99.90
6054;DHT22;3055;50.886;14.814;2023-06-14T01:37:53;9.70;99.90
6054;DHT22;3055;50.886;14.814;2023-06-14T01:40:23;9.60;99.90
6054;DHT22;3055;50.886;14.814;2023-06-14T01:42:52;9.70;99.90
6054;DHT22;3055;50.886;14.814;2023-06-14T01:45:19;9.60;99.90
6054;DHT22;3055;50.886;14.814;2023-06-14T01:47:47;9.60;99.90
6054;DHT22;3055;50.886;14.814;2023-06-14T01:50:14;9.50;99.90
6054;DHT22;3055;50.886;14.814;2023-06-14T01:52:42;9.50;99.90
6054;DHT22;3055;50.886;14.814;2023-06-14T01:55:09;9.50;99.90
6054;DHT22;3055;50.886;14.814;2023-06-14T01:57:38;9.50;99.90
6054;DHT22;3055;50.886;14.814;2023-06-14T02:00:06;9.40;99.90
6054;DHT22;3055;50.886;14.814;2023-06-14T02:02:36;9.40;99.90
6054;DHT22;3055;50.886;14.814;2023-06-14T02:05:03;9.50;99.90
6054;DHT22;3055;50.886;14.814;2023-06-14T02:07:31;9.50;99.90
6054;DHT22;3055;50.886;14.814;2023-06-14T02:09:59;9.40;99.90
6054;DHT22;3055;50.886;14.814;2023-06-14T02:12:26;9.40;99.90
6054;DHT22;3055;50.886;14.814;2023-06-14T02:14:54;9.40;99.90
6054;DHT22;3055;50.886;14.814;2023-06-14T02:17:22;9.40;99.90
6054;DHT22;3055;50.886;14.814;2023-06-14T02:19:49;9.40;99.90
6054;DHT22;3055;50.886;14.814;2023-06-14T02:22:16;9.30;99.90
6054;DHT22;3055;50.886;14.814;2023-06-14T02:24:43;9.20;99.90
6054;DHT22;3055;50.886;14.814;2023-06-14T02:27:11;9.20;99.90
6054;DHT22;3055;50.886;14.814;2023-06-14T02:29:38;9.20;99.90
6054;DHT22;3055;50.886;14.814;2023-06-14T02:32:07;9.20;99.90
6054;DHT22;3055;50.886;14.814;2023-06-14T02:34:35;9.30;99.90
6054;DHT22;3055;50.886;14.814;2023-06-14T02:37:02;9.40;99.90
6054;DHT22;3055;50.886;14.814;2023-06-14T02:39:30;9.40;99.90
6054;DHT22;3055;50.886;14.814;2023-06-14T02:41:57;9.30;99.90
6054;DHT22;3055;50.886;14.814;2023-06-14T02:44:25;9.20;99.90
6054;DHT22;3055;50.886;14.814;2023-06-14T02:46:52;9.20;99.90
6054;DHT22;3055;50.886;14.814;2023-06-14T02:49:22;9.30;99.90
6054;DHT22;3055;50.886;14.814;2023-06-14T02:51:49;9.30;99.90
6054;DHT22;3055;50.886;14.814;2023-06-14T02:54:17;9.40;99.90
6054;DHT22;3055;50.886;14.814;2023-06-14T02:56:44;9.40;99.90
6054;DHT22;3055;50.886;14.814;2023-06-14T02:59:11;9.50;99.90
6054;DHT22;3055;50.886;14.814;2023-06-14T03:01:39;9.50;99.90
6054;DHT22;3055;50.886;14.814;2023-06-14T03:04:07;9.50;99.90
6054;DHT22;3055;50.886;14.814;2023-06-14T03:06:35;9.70;99.90
6054;DHT22;3055;50.886;14.814;2023-06-14T03:09:03;9.80;99.90
6054;DHT22;3055;50.886;14.814;2023-06-14T03:11:31;9.80;99.90
6054;DHT22;3055;50.886;14.814;2023-06-14T03:13:59;9.70;99.90
6054;DHT22;3055;50.886;14.814;2023-06-14T03:16:29;9.70;99.90
6054;DHT22;3055;50.886;14.814;2023-06-14T03:18:57;9.80;99.90
6054;DHT22;3055;50.886;14.814;2023-06-14T03:21:24;9.80;99.90
6054;DHT22;3055;50.886;14.814;2023-06-14T03:23:53;9.80;99.90
6054;DHT22;3055;50.886;14.814;2023-06-14T03:26:20;9.70;99.90
6054;DHT22;3055;50.886;14.814;2023-06-14T03:28:48;9.70;99.90
6054;DHT22;3055;50.886;14.814;2023-06-14T03:31:15;9.80;99.90
6054;DHT22;3055;50.886;14.814;2023-06-14T03:33:42;9.80;99.90
6054;DHT22;3055;50.886;14.814;2023-06-14T03:36:10;9.80;99.90
6054;DHT22;3055;50.886;14.814;2023-06-14T03:38:37;9.80;99.90
6054;DHT22;3055;50.886;14.814;2023-06-14T03:41:05;9.80;99.90
6054;DHT22;3055;50.886;14.814;2023-06-14T03:43:32;9.80;99.90
6054;DHT22;3055;50.886;14.814;2023-06-14T03:46:00;9.90;99.90
6054;DHT22;3055;50.886;14.814;2023-06-14T03:48:28;9.80;99.90
6054;DHT22;3055;50.886;14.814;2023-06-14T03:50:55;9.90;99.90
6054;DHT22;3055;50.886;14.814;2023-06-14T03:53:22;9.90;99.90
6054;DHT22;3055;50.886;14.814;2023-06-14T03:55:50;10.20;99.90
6054;DHT22;3055;50.886;14.814;2023-06-14T03:58:19;10.40;99.90
6054;DHT22;3055;50.886;14.814;2023-06-14T04:00:46;10.60;99.90
6054;DHT22;3055;50.886;14.814;2023-06-14T04:03:13;10.70;99.90
6054;DHT22;3055;50.886;14.814;2023-06-14T04:05:41;10.80;99.90
6054;DHT22;3055;50.886;14.814;2023-06-14T04:08:10;10.90;99.90
6054;DHT22;3055;50.886;14.814;2023-06-14T04:10:40;11.00;99.90
6054;DHT22;3055;50.886;14.814;2023-06-14T04:13:07;11.10;99.90
6054;DHT22;3055;50.886;14.814;2023-06-14T04:15:39;11.10;99.90
6054;DHT22;3055;50.886;14.814;2023-06-14T04:18:07;11.20;99.90
6054;DHT22;3055;50.886;14.814;2023-06-14T04:20:35;11.20;99.90
6054;DHT22;3055;50.886;14.814;2023-06-14T04:23:11;11.30;99.90
6054;DHT22;3055;50.886;14.814;2023-06-14T04:25:39;11.30;99.90
6054;DHT22;3055;50.886;14.814;2023-06-14T04:28:11;11.30;99.90
6054;DHT22;3055;50.886;14.814;2023-06-14T04:30:39;11.30;99.90
6054;DHT22;3055;50.886;14.814;2023-06-14T04:33:06;11.20;99.90
6054;DHT22;3055;50.886;14.814;2023-06-14T04:35:33;11.10;99.90
6054;DHT22;3055;50.886;14.814;2023-06-14T04:38:01;11.00;99.90
6054;DHT22;3055;50.886;14.814;2023-06-14T04:40:30;11.00;99.90
6054;DHT22;3055;50.886;14.814;2023-06-14T04:42:58;11.10;99.90
6054;DHT22;3055;50.886;14.814;2023-06-14T04:45:25;11.20;99.90
6054;DHT22;3055;50.886;14.814;2023-06-14T04:47:58;11.30;99.90
6054;DHT22;3055;50.886;14.814;2023-06-14T04:50:25;11.50;99.90
6054;DHT22;3055;50.886;14.814;2023-06-14T04:52:53;11.80;99.90
6054;DHT22;3055;50.886;14.814;2023-06-14T04:55:20;12.20;99.90
6054;DHT22;3055;50.886;14.814;2023-06-14T04:57:47;12.60;99.90
6054;DHT22;3055;50.886;14.814;2023-06-14T05:00:15;12.80;52.40
6054;DHT22;3055;50.886;14.814;2023-06-14T05:02:42;13.00;51.10
6054;DHT22;3055;50.886;14.814;2023-06-14T05:05:11;13.30;26.80
6054;DHT22;3055;50.886;14.814;2023-06-14T05:07:38;13.80;1.00
6054;DHT22;3055;50.886;14.814;2023-06-14T05:10:07;14.00;99.90
6054;DHT22;3055;50.886;14.814;2023-06-14T05:12:34;14.60;99.90
6054;DHT22;3055;50.886;14.814;2023-06-14T05:15:01;14.90;1.00
6054;DHT22;3055;50.886;14.814;2023-06-14T05:17:28;15.10;1.00
6054;DHT22;3055;50.886;14.814;2023-06-14T05:19:55;15.30;1.00
6054;DHT22;3055;50.886;14.814;2023-06-14T05:22:24;15.60;1.00
6054;DHT22;3055;50.886;14.814;2023-06-14T05:24:51;15.70;99.90
6054;DHT22;3055;50.886;14.814;2023-06-14T05:27:18;15.80;99.90
6054;DHT22;3055;50.886;14.814;2023-06-14T05:29:45;15.60;99.90
6054;DHT22;3055;50.886;14.814;2023-06-14T05:32:12;15.60;99.90
6054;DHT22;3055;50.886;14.814;2023-06-14T05:34:39;15.50;99.90
6054;DHT22;3055;50.886;14.814;2023-06-14T05:37:06;15.60;99.90
6054;DHT22;3055;50.886;14.814;2023-06-14T05:39:35;15.70;99.90
6054;DHT22;3055;50.886;14.814;2023-06-14T05:42:02;15.70;99.90
6054;DHT22;3055;50.886;14.814;2023-06-14T05:44:29;15.80;99.90
6054;DHT22;3055;50.886;14.814;2023-06-14T05:46:56;15.80;99.90
6054;DHT22;3055;50.886;14.814;2023-06-14T05:49:23;15.90;99.90
6054;DHT22;3055;50.886;14.814;2023-06-14T05:51:50;15.70;99.90
6054;DHT22;3055;50.886;14.814;2023-06-14T05:54:17;15.70;99.90
6054;DHT22;3055;50.886;14.814;2023-06-14T05:56:45;15.60;99.90
6054;DHT22;3055;50.886;14.814;2023-06-14T05:59:12;15.60;99.90
6054;DHT22;3055;50.886;14.814;2023-06-14T06:01:39;15.60;99.90
6054;DHT22;3055;50.886;14.814;2023-06-14T06:04:06;15.60;99.90
6054;DHT22;3055;50.886;14.814;2023-06-14T06:06:33;15.60;99.90
6054;DHT22;3055;50.886;14.814;2023-06-14T06:09:01;15.60;99.90
6054;DHT22;3055;50.886;14.814;2023-06-14T06:11:28;15.70;99.90
6054;DHT22;3055;50.886;14.814;2023-06-14T06:13:57;15.70;99.90
6054;DHT22;3055;50.886;14.814;2023-06-14T06:16:24;15.70;99.90
6054;DHT22;3055;50.886;14.814;2023-06-14T06:18:51;15.80;99.90
6054;DHT22;3055;50.886;14.814;2023-06-14T06:21:18;16.00;99.90
6054;DHT22;3055;50.886;14.814;2023-06-14T06:23:45;16.10;99.90
6054;DHT22;3055;50.886;14.814;2023-06-14T06:26:13;16.20;99.90
6054;DHT22;3055;50.886;14.814;2023-06-14T06:28:40;16.20;99.90
6054;DHT22;3055;50.886;14.814;2023-06-14T06:31:08;16.10;99.90
6054;DHT22;3055;50.886;14.814;2023-06-14T06:33:36;16.20;99.90
6054;DHT22;3055;50.886;14.814;2023-06-14T06:36:05;16.20;99.90
6054;DHT22;3055;50.886;14.814;2023-06-14T06:38:32;16.30;99.90
6054;DHT22;3055;50.886;14.814;2023-06-14T06:40:59;16.40;99.90
6054;DHT22;3055;50.886;14.814;2023-06-14T06:43:26;16.60;99.90
6054;DHT22;3055;50.886;14.814;2023-06-14T06:45:53;16.70;99.90
6054;DHT22;3055;50.886;14.814;2023-06-14T06:48:22;16.90;99.90
6054;DHT22;3055;50.886;14.814;2023-06-14T06:50:49;17.20;99.90
6054;DHT22;3055;50.886;14.814;2023-06-14T06:53:16;17.30;99.90
6054;DHT22;3055;50.886;14.814;2023-06-14T06:55:44;17.60;99.90
6054;DHT22;3055;50.886;14.814;2023-06-14T06:58:12;17.80;99.90
6054;DHT22;3055;50.886;14.814;2023-06-14T07:00:39;17.90;99.90
6054;DHT22;3055;50.886;14.814;2023-06-14T07:03:06;17.70;99.90
6054;DHT22;3055;50.886;14.814;2023-06-14T07:05:35;17.90;99.90
6054;DHT22;3055;50.886;14.814;2023-06-14T07:08:02;18.00;99.90
6054;DHT22;3055;50.886;14.814;2023-06-14T07:10:29;18.10;99.90
6054;DHT22;3055;50.886;14.814;2023-06-14T07:12:56;18.20;96.40
6054;DHT22;3055;50.886;14.814;2023-06-14T07:15:23;18.20;42.20
6054;DHT22;3055;50.886;14.814;2023-06-14T07:17:51;18.00;18.10
6054;DHT22;3055;50.886;14.814;2023-06-14T07:20:18;17.80;1.00
6054;DHT22;3055;50.886;14.814;2023-06-14T07:22:49;17.80;1.00
6054;DHT22;3055;50.886;14.814;2023-06-14T07:25:16;17.90;1.00
6054;DHT22;3055;50.886;14.814;2023-06-14T07:27:46;18.10;1.00
6054;DHT22;3055;50.886;14.814;2023-06-14T07:30:13;18.30;1.00
6054;DHT22;3055;50.886;14.814;2023-06-14T07:32:40;18.50;1.00
6054;DHT22;3055;50.886;14.814;2023-06-14T07:35:08;18.40;1.00
6054;DHT22;3055;50.886;14.814;2023-06-14T07:37:35;18.40;1.00
6054;DHT22;3055;50.886;14.814;2023-06-14T07:40:05;18.40;1.00
6054;DHT22;3055;50.886;14.814;2023-06-14T07:42:33;18.40;1.00
6054;DHT22;3055;50.886;14.814;2023-06-14T07:45:00;18.60;1.00
6054;DHT22;3055;50.886;14.814;2023-06-14T07:47:27;18.70;1.00
6054;DHT22;3055;50.886;14.814;2023-06-14T07:49:54;18.80;1.00
6054;DHT22;3055;50.886;14.814;2023-06-14T07:52:21;18.90;1.00
6054;DHT22;3055;50.886;14.814;2023-06-14T07:54:48;19.00;1.00
6054;DHT22;3055;50.886;14.814;2023-06-14T07:57:17;19.00;1.00
6054;DHT22;3055;50.886;14.814;2023-06-14T07:59:45;19.00;1.00
6054;DHT22;3055;50.886;14.814;2023-06-14T08:02:12;19.00;1.00
6054;DHT22;3055;50.886;14.814;2023-06-14T08:04:39;18.90;1.00
6054;DHT22;3055;50.886;14.814;2023-06-14T08:07:07;18.80;1.00
6054;DHT22;3055;50.886;14.814;2023-06-14T08:09:35;19.10;1.00
6054;DHT22;3055;50.886;14.814;2023-06-14T08:12:04;19.30;1.00
6054;DHT22;3055;50.886;14.814;2023-06-14T08:14:34;19.50;1.00
6054;DHT22;3055;50.886;14.814;2023-06-14T08:17:01;19.70;1.00
6054;DHT22;3055;50.886;14.814;2023-06-14T08:19:28;19.90;1.00
6054;DHT22;3055;50.886;14.814;2023-06-14T08:21:55;20.10;1.00
6054;DHT22;3055;50.886;14.814;2023-06-14T08:24:23;20.00;1.00
6054;DHT22;3055;50.886;14.814;2023-06-14T08:26:52;20.00;1.00
6054;DHT22;3055;50.886;14.814;2023-06-14T08:29:19;20.20;1.00
6054;DHT22;3055;50.886;14.814;2023-06-14T08:31:48;20.30;1.00
6054;DHT22;3055;50.886;14.814;2023-06-14T08:34:15;20.40;1.00
6054;DHT22;3055;50.886;14.814;2023-06-14T08:36:42;20.30;1.00
6054;DHT22;3055;50.886;14.814;2023-06-14T08:39:09;20.40;1.00
6054;DHT22;3055;50.886;14.814;2023-06-14T08:41:37;20.30;1.00
6054;DHT22;3055;50.886;14.814;2023-06-14T08:44:04;20.20;1.00
6054;DHT22;3055;50.886;14.814;2023-06-14T08:46:33;20.30;1.00
6054;DHT22;3055;50.886;14.814;2023-06-14T08:49:02;20.40;1.00
6054;DHT22;3055;50.886;14.814;2023-06-14T08:51:31;20.00;1.00
6054;DHT22;3055;50.886;14.814;2023-06-14T08:54:00;19.90;1.00
6054;DHT22;3055;50.886;14.814;2023-06-14T08:56:30;19.70;1.00
6054;DHT22;3055;50.886;14.814;2023-06-14T08:59:00;19.70;1.00
6054;DHT22;3055;50.886;14.814;2023-06-14T09:01:28;19.90;1.00
6054;DHT22;3055;50.886;14.814;2023-06-14T09:03:56;19.90;1.00
6054;DHT22;3055;50.886;14.814;2023-06-14T09:06:26;20.10;1.00
6054;DHT22;3055;50.886;14.814;2023-06-14T09:08:55;20.60;1.00
6054;DHT22;3055;50.886;14.814;2023-06-14T09:11:23;20.80;1.00
6054;DHT22;3055;50.886;14.814;2023-06-14T09:13:51;21.10;1.00
6054;DHT22;3055;50.886;14.814;2023-06-14T09:16:18;21.30;1.00
6054;DHT22;3055;50.886;14.814;2023-06-14T09:18:47;21.60;1.00
6054;DHT22;3055;50.886;14.814;2023-06-14T09:21:15;21.60;1.00
6054;DHT22;3055;50.886;14.814;2023-06-14T09:23:44;21.70;1.00
6054;DHT22;3055;50.886;14.814;2023-06-14T09:26:13;21.90;1.00
6054;DHT22;3055;50.886;14.814;2023-06-14T09:28:44;22.10;1.00
6054;DHT22;3055;50.886;14.814;2023-06-14T09:31:12;22.10;1.00
6054;DHT22;3055;50.886;14.814;2023-06-14T09:33:41;21.90;1.00
6054;DHT22;3055;50.886;14.814;2023-06-14T09:36:15;21.70;1.00
6054;DHT22;3055;50.886;14.814;2023-06-14T09:38:51;21.60;1.00
6054;DHT22;3055;50.886;14.814;2023-06-14T09:41:19;21.20;1.00
6054;DHT22;3055;50.886;14.814;2023-06-14T09:43:47;21.20;1.00
6054;DHT22;3055;50.886;14.814;2023-06-14T09:46:15;21.10;1.00
6054;DHT22;3055;50.886;14.814;2023-06-14T09:48:42;21.10;1.00
6054;DHT22;3055;50.886;14.814;2023-06-14T09:51:14;21.10;1.00
6054;DHT22;3055;50.886;14.814;2023-06-14T09:53:45;21.10;1.00
6054;DHT22;3055;50.886;14.814;2023-06-14T09:56:14;21.10;1.00
6054;DHT22;3055;50.886;14.814;2023-06-14T09:58:42;21.30;1.00
6054;DHT22;3055;50.886;14.814;2023-06-14T10:01:09;21.40;1.00
6054;DHT22;3055;50.886;14.814;2023-06-14T10:03:39;21.50;1.00
6054;DHT22;3055;50.886;14.814;2023-06-14T10:06:08;21.40;1.00
6054;DHT22;3055;50.886;14.814;2023-06-14T10:08:36;21.20;1.00
6054;DHT22;3055;50.886;14.814;2023-06-14T10:11:05;21.00;1.00
6054;DHT22;3055;50.886;14.814;2023-06-14T10:13:33;20.70;1.00
6054;DHT22;3055;50.886;14.814;2023-06-14T10:16:07;20.90;1.00
6054;DHT22;3055;50.886;14.814;2023-06-14T10:18:42;21.10;1.00
6054;DHT22;3055;50.886;14.814;2023-06-14T10:21:18;21.50;1.00
6054;DHT22;3055;50.886;14.814;2023-06-14T10:23:49;21.70;1.00
6054;DHT22;3055;50.886;14.814;2023-06-14T10:26:22;21.50;1.00
6054;DHT22;3055;50.886;14.814;2023-06-14T10:28:58;21.50;1.00
6054;DHT22;3055;50.886;14.814;2023-06-14T10:31:43;21.70;1.00
6054;DHT22;3055;50.886;14.814;2023-06-14T10:34:11;21.90;1.00
6054;DHT22;3055;50.886;14.814;2023-06-14T10:36:41;21.90;1.00
6054;DHT22;3055;50.886;14.814;2023-06-14T10:39:14;22.10;1.00
6054;DHT22;3055;50.886;14.814;2023-06-14T10:41:51;22.30;1.00
6054;DHT22;3055;50.886;14.814;2023-06-14T10:44:38;22.20;1.00
6054;DHT22;3055;50.886;14.814;2023-06-14T10:47:26;22.10;1.00
6054;DHT22;3055;50.886;14.814;2023-06-14T10:49:54;22.40;1.00
6054;DHT22;3055;50.886;14.814;2023-06-14T10:52:25;22.70;1.00
6054;DHT22;3055;50.886;14.814;2023-06-14T10:55:11;22.80;1.00
6054;DHT22;3055;50.886;14.814;2023-06-14T10:57:42;22.90;1.00
6054;DHT22;3055;50.886;14.814;2023-06-14T11:00:12;23.30;1.00
6054;DHT22;3055;50.886;14.814;2023-06-14T11:05:48;23.60;1.00
6054;DHT22;3055;50.886;14.814;2023-06-14T11:08:39;23.40;1.00
6054;DHT22;3055;50.886;14.814;2023-06-14T11:11:09;23.00;1.00
6054;DHT22;3055;50.886;14.814;2023-06-14T11:13:38;23.40;1.00
6054;DHT22;3055;50.886;14.814;2023-06-14T11:16:10;23.40;1.00
6054;DHT22;3055;50.886;14.814;2023-06-14T11:18:38;23.00;1.00
6054;DHT22;3055;50.886;14.814;2023-06-14T11:21:06;22.30;1.00
6054;DHT22;3055;50.886;14.814;2023-06-14T11:23:34;21.90;1.00
6054;DHT22;3055;50.886;14.814;2023-06-14T11:26:01;21.80;1.00
6054;DHT22;3055;50.886;14.814;2023-06-14T11:28:38;21.60;1.00
6054;DHT22;3055;50.886;14.814;2023-06-14T11:31:06;21.50;1.00
6054;DHT22;3055;50.886;14.814;2023-06-14T11:33:34;21.60;1.00
6054;DHT22;3055;50.886;14.814;2023-06-14T11:36:02;21.60;1.00
6054;DHT22;3055;50.886;14.814;2023-06-14T11:38:30;21.60;1.00
6054;DHT22;3055;50.886;14.814;2023-06-14T11:40:59;21.90;1.00
6054;DHT22;3055;50.886;14.814;2023-06-14T11:43:27;21.90;1.00
6054;DHT22;3055;50.886;14.814;2023-06-14T11:45:56;21.70;1.00
6054;DHT22;3055;50.886;14.814;2023-06-14T11:48:23;21.80;1.00
6054;DHT22;3055;50.886;14.814;2023-06-14T11:50:50;21.70;1.00
6054;DHT22;3055;50.886;14.814;2023-06-14T11:53:18;21.70;1.00
6054;DHT22;3055;50.886;14.814;2023-06-14T11:55:45;22.20;1.00
6054;DHT22;3055;50.886;14.814;2023-06-14T11:58:13;22.50;1.00
6054;DHT22;3055;50.886;14.814;2023-06-14T12:00:41;22.60;1.00
6054;DHT22;3055;50.886;14.814;2023-06-14T12:03:12;22.60;1.00
6054;DHT22;3055;50.886;14.814;2023-06-14T12:05:39;22.50;1.00
6054;DHT22;3055;50.886;14.814;2023-06-14T12:08:06;22.70;1.00
6054;DHT22;3055;50.886;14.814;2023-06-14T12:10:40;22.80;1.00
6054;DHT22;3055;50.886;14.814;2023-06-14T12:13:09;23.10;1.00
6054;DHT22;3055;50.886;14.814;2023-06-14T12:15:36;23.10;1.00
6054;DHT22;3055;50.886;14.814;2023-06-14T12:18:06;23.10;1.00
6054;DHT22;3055;50.886;14.814;2023-06-14T12:20:35;23.50;1.00
6054;DHT22;3055;50.886;14.814;2023-06-14T12:23:04;23.90;1.00
6054;DHT22;3055;50.886;14.814;2023-06-14T12:25:32;24.10;1.00
6054;DHT22;3055;50.886;14.814;2023-06-14T12:28:03;23.80;1.00
6054;DHT22;3055;50.886;14.814;2023-06-14T12:30:30;23.60;1.00
6054;DHT22;3055;50.886;14.814;2023-06-14T12:32:57;23.40;1.00
6054;DHT22;3055;50.886;14.814;2023-06-14T12:35:24;22.90;1.00
6054;DHT22;3055;50.886;14.814;2023-06-14T12:37:53;22.60;1.00
6054;DHT22;3055;50.886;14.814;2023-06-14T12:40:20;22.40;1.00
6054;DHT22;3055;50.886;14.814;2023-06-14T12:42:47;22.20;1.00
6054;DHT22;3055;50.886;14.814;2023-06-14T12:45:14;22.10;1.00
6054;DHT22;3055;50.886;14.814;2023-06-14T12:47:41;22.00;1.00
6054;DHT22;3055;50.886;14.814;2023-06-14T12:50:09;21.70;1.00
6054;DHT22;3055;50.886;14.814;2023-06-14T12:52:36;21.60;1.00
6054;DHT22;3055;50.886;14.814;2023-06-14T12:55:05;21.50;1.00
6054;DHT22;3055;50.886;14.814;2023-06-14T12:57:33;21.20;1.00
6054;DHT22;3055;50.886;14.814;2023-06-14T13:00:02;21.00;1.00
6054;DHT22;3055;50.886;14.814;2023-06-14T13:02:30;20.90;1.00
6054;DHT22;3055;50.886;14.814;2023-06-14T13:04:57;21.00;1.00
6054;DHT22;3055;50.886;14.814;2023-06-14T13:07:24;21.10;1.00
6054;DHT22;3055;50.886;14.814;2023-06-14T13:09:51;21.20;1.00
6054;DHT22;3055;50.886;14.814;2023-06-14T13:12:20;21.20;1.00
6054;DHT22;3055;50.886;14.814;2023-06-14T13:14:47;21.50;1.00
6054;DHT22;3055;50.886;14.814;2023-06-14T13:17:14;21.90;1.00
6054;DHT22;3055;50.886;14.814;2023-06-14T13:19:41;22.20;1.00
6054;DHT22;3055;50.886;14.814;2023-06-14T13:22:08;22.70;1.00
6054;DHT22;3055;50.886;14.814;2023-06-14T13:24:36;23.10;1.00
6054;DHT22;3055;50.886;14.814;2023-06-14T13:27:03;23.70;1.00
6054;DHT22;3055;50.886;14.814;2023-06-14T13:29:32;24.10;1.00
6054;DHT22;3055;50.886;14.814;2023-06-14T13:32:01;24.30;1.00
6054;DHT22;3055;50.886;14.814;2023-06-14T13:34:28;24.80;1.00
6054;DHT22;3055;50.886;14.814;2023-06-14T13:36:56;25.00;1.00
6054;DHT22;3055;50.886;14.814;2023-06-14T13:39:24;25.00;1.00
6054;DHT22;3055;50.886;14.814;2023-06-14T13:41:51;24.60;1.00
6054;DHT22;3055;50.886;14.814;2023-06-14T13:44:18;24.60;1.00
6054;DHT22;3055;50.886;14.814;2023-06-14T13:46:48;24.50;1.00
6054;DHT22;3055;50.886;14.814;2023-06-14T13:49:15;24.40;1.00
6054;DHT22;3055;50.886;14.814;2023-06-14T13:51:42;24.20;1.00
6054;DHT22;3055;50.886;14.814;2023-06-14T13:54:12;24.00;1.00
6054;DHT22;3055;50.886;14.814;2023-06-14T13:56:40;23.20;1.00
6054;DHT22;3055;50.886;14.814;2023-06-14T13:59:07;22.80;1.00
6054;DHT22;3055;50.886;14.814;2023-06-14T14:01:37;22.70;1.00
6054;DHT22;3055;50.886;14.814;2023-06-14T14:04:06;22.70;1.00
6054;DHT22;3055;50.886;14.814;2023-06-14T14:06:33;22.70;1.00
6054;DHT22;3055;50.886;14.814;2023-06-14T14:09:00;22.60;1.00
6054;DHT22;3055;50.886;14.814;2023-06-14T14:11:27;22.50;1.00
6054;DHT22;3055;50.886;14.814;2023-06-14T14:13:57;22.20;1.00
6054;DHT22;3055;50.886;14.814;2023-06-14T14:16:24;22.30;1.00
6054;DHT22;3055;50.886;14.814;2023-06-14T14:18:52;22.80;1.00
6054;DHT22;3055;50.886;14.814;2023-06-14T14:21:20;23.20;1.00
6054;DHT22;3055;50.886;14.814;2023-06-14T14:23:47;23.80;1.00
6054;DHT22;3055;50.886;14.814;2023-06-14T14:26:15;24.40;1.00
6054;DHT22;3055;50.886;14.814;2023-06-14T14:28:42;25.70;1.00
6054;DHT22;3055;50.886;14.814;2023-06-14T14:31:09;26.50;1.00
6054;DHT22;3055;50.886;14.814;2023-06-14T14:33:36;27.10;1.00
6054;DHT22;3055;50.886;14.814;2023-06-14T14:36:04;27.70;1.00
6054;DHT22;3055;50.886;14.814;2023-06-14T14:38:34;28.50;1.00
6054;DHT22;3055;50.886;14.814;2023-06-14T14:41:01;29.20;1.00
6054;DHT22;3055;50.886;14.814;2023-06-14T14:43:28;29.70;1.00
6054;DHT22;3055;50.886;14.814;2023-06-14T14:45:56;30.10;1.00
6054;DHT22;3055;50.886;14.814;2023-06-14T14:48:23;29.80;1.00
6054;DHT22;3055;50.886;14.814;2023-06-14T14:50:50;30.20;1.00
6054;DHT22;3055;50.886;14.814;2023-06-14T14:53:17;29.60;1.00
6054;DHT22;3055;50.886;14.814;2023-06-14T14:55:46;29.80;1.00
6054;DHT22;3055;50.886;14.814;2023-06-14T14:58:13;29.50;1.00
6054;DHT22;3055;50.886;14.814;2023-06-14T15:00:43;29.40;1.00
6054;DHT22;3055;50.886;14.814;2023-06-14T15:03:11;29.60;1.00
6054;DHT22;3055;50.886;14.814;2023-06-14T15:05:38;29.90;1.00
6054;DHT22;3055;50.886;14.814;2023-06-14T15:08:05;29.80;1.00
6054;DHT22;3055;50.886;14.814;2023-06-14T15:10:37;29.70;1.00
6054;DHT22;3055;50.886;14.814;2023-06-14T15:13:07;30.10;1.00
6054;DHT22;3055;50.886;14.814;2023-06-14T15:15:35;31.10;1.00
6054;DHT22;3055;50.886;14.814;2023-06-14T15:18:02;30.80;1.00
6054;DHT22;3055;50.886;14.814;2023-06-14T15:20:29;30.80;1.00
6054;DHT22;3055;50.886;14.814;2023-06-14T15:22:56;30.70;1.00
6054;DHT22;3055;50.886;14.814;2023-06-14T15:25:25;30.50;1.00
6054;DHT22;3055;50.886;14.814;2023-06-14T15:27:53;29.70;1.00
6054;DHT22;3055;50.886;14.814;2023-06-14T15:30:22;28.40;99.90
6054;DHT22;3055;50.886;14.814;2023-06-14T15:32:49;27.00;99.90
6054;DHT22;3055;50.886;14.814;2023-06-14T15:35:17;25.40;99.90
6054;DHT22;3055;50.886;14.814;2023-06-14T15:37:44;24.30;99.90
6054;DHT22;3055;50.886;14.814;2023-06-14T15:40:12;23.70;99.90
6054;DHT22;3055;50.886;14.814;2023-06-14T15:42:39;23.30;1.00
6054;DHT22;3055;50.886;14.814;2023-06-14T15:45:07;23.00;1.00
6054;DHT22;3055;50.886;14.814;2023-06-14T15:47:35;22.70;1.00
6054;DHT22;3055;50.886;14.814;2023-06-14T15:50:03;22.50;1.00
6054;DHT22;3055;50.886;14.814;2023-06-14T15:52:33;22.60;1.00
6054;DHT22;3055;50.886;14.814;2023-06-14T15:55:00;22.80;1.00
6054;DHT22;3055;50.886;14.814;2023-06-14T15:57:27;22.70;1.00
6054;DHT22;3055;50.886;14.814;2023-06-14T15:59:54;22.50;1.00
6054;DHT22;3055;50.886;14.814;2023-06-14T16:02:21;22.40;1.00
6054;DHT22;3055;50.886;14.814;2023-06-14T16:04:49;22.30;1.00
6054;DHT22;3055;50.886;14.814;2023-06-14T16:07:17;22.20;1.00